Time;durP1;ratioP1;P1;durP2;ratioP2;P2;SDS_P1;SDS_P2;PMS_P1;PMS_P2;Temp;Humidity;BMP_temperature;BMP_pressure;BME280_temperature;BME280_humidity;BME280_pressure;Samples;Min_cycle;Max_cycle;Signal;HPM_P1;HPM_P2
2023/05/26 00:01:02;;;;;;;25.42;5.50;;;;;;;9.59;100.00;103052.88;4819458;29;20694;-75
2023/05/26 00:03:29;;;;;;;21.95;5.47;;;;;;;9.59;100.00;103052.88;4858211;29;20040;-75
2023/05/26 00:05:57;;;;;;;22.65;5.63;;;;;;;9.57;100.00;103044.03;4847994;29;20048;-75
2023/05/26 00:08:27;;;;;;;22.27;4.40;;;;;;;9.58;100.00;103048.44;4871890;29;20045;-76
2023/05/26 00:10:54;;;;;;;23.33;5.78;;;;;;;9.59;100.00;103052.00;4876463;29;20074;-76
2023/05/26 00:13:22;;;;;;;26.42;5.78;;;;;;;9.57;100.00;103050.19;4871525;29;20049;-75
2023/05/26 00:15:49;;;;;;;24.77;5.20;;;;;;;9.56;100.00;103058.00;4801332;29;20071;-76
2023/05/26 00:18:17;;;;;;;17.90;5.00;;;;;;;9.56;100.00;103058.00;4870881;29;20391;-76
2023/05/26 00:20:45;;;;;;;23.48;5.22;;;;;;;9.56;100.00;103063.28;4856123;29;20065;-75
2023/05/26 00:23:12;;;;;;;24.55;5.68;;;;;;;9.54;100.00;103055.31;4887225;29;20056;-76
2023/05/26 00:25:40;;;;;;;26.70;6.38;;;;;;;9.53;100.00;103057.91;4827989;29;20503;-75
2023/05/26 00:28:07;;;;;;;23.33;5.07;;;;;;;9.52;100.00;103062.25;4888942;29;20051;-76
2023/05/26 00:30:34;;;;;;;21.02;5.07;;;;;;;9.53;100.00;103065.81;4849614;29;20063;-75
2023/05/26 00:33:02;;;;;;;27.30;5.00;;;;;;;9.52;100.00;103070.16;4837130;29;20068;-76
2023/05/26 00:35:30;;;;;;;25.55;5.30;;;;;;;9.51;100.00;103063.09;4870259;29;20056;-76
2023/05/26 00:37:57;;;;;;;26.02;5.60;;;;;;;9.51;100.00;103075.38;4842345;29;20270;-76
2023/05/26 00:40:24;;;;;;;28.67;5.53;;;;;;;9.51;100.00;103078.00;4861742;29;20411;-75
2023/05/26 00:42:52;;;;;;;21.55;5.30;;;;;;;9.50;100.00;103071.81;4857893;29;20033;-75
2023/05/26 00:45:19;;;;;;;20.95;4.53;;;;;;;9.51;100.00;103076.25;4848913;29;20045;-74
2023/05/26 00:47:46;;;;;;;25.15;4.75;;;;;;;9.51;100.00;103075.38;4839452;29;20055;-74
2023/05/26 00:50:16;;;;;;;22.60;4.50;;;;;;;9.52;100.00;103072.78;4858459;29;20060;-76
2023/05/26 00:52:44;;;;;;;23.98;5.43;;;;;;;9.52;100.00;103072.78;4830490;29;20053;-76
2023/05/26 00:55:12;;;;;;;21.52;4.35;;;;;;;9.52;100.00;103077.16;4859067;29;20045;-76
2023/05/26 00:57:40;;;;;;;25.75;5.40;;;;;;;9.52;100.00;103071.88;4857707;29;20056;-76
2023/05/26 01:00:08;;;;;;;21.80;4.85;;;;;;;9.51;100.00;103065.72;4840095;29;20053;-76
2023/05/26 01:02:39;;;;;;;22.65;4.78;;;;;;;9.52;100.00;103061.34;4837062;29;20041;-76
2023/05/26 01:05:08;;;;;;;27.10;4.57;;;;;;;9.53;100.00;103060.53;4858707;29;20049;-74
2023/05/26 01:07:36;;;;;;;22.98;4.88;;;;;;;9.52;100.00;103067.50;4869138;29;20514;-74
2023/05/26 01:10:04;;;;;;;25.08;4.68;;;;;;;9.51;100.00;103068.34;4842070;29;20060;-75
2023/05/26 01:12:48;;;;;;;24.25;4.95;;;;;;;9.51;100.00;103073.63;4847596;29;23947;-74
2023/05/26 01:15:21;;;;;;;19.27;4.40;;;;;;;9.51;100.00;103070.09;4869193;29;20037;-74
2023/05/26 01:18:28;;;;;;;26.17;4.93;;;;;;;9.50;100.00;103071.81;4885577;29;20413;-74
2023/05/26 01:21:15;;;;;;;24.33;5.32;;;;;;;9.51;100.00;103072.72;4813684;29;20420;-76
2023/05/26 01:24:20;;;;;;;34.72;6.45;;;;;;;9.50;100.00;103069.19;4858729;29;20056;-76
2023/05/26 01:27:11;;;;;;;23.65;4.55;;;;;;;9.50;100.00;103074.44;4870147;29;20057;-75
2023/05/26 01:29:39;;;;;;;23.92;5.15;;;;;;;9.49;100.00;103072.66;4889420;29;20048;-75
2023/05/26 01:32:08;;;;;;;26.55;5.55;;;;;;;9.50;100.00;103078.81;4841671;29;20054;-76
2023/05/26 01:34:36;;;;;;;23.83;6.10;;;;;;;9.49;100.00;103072.66;4810155;29;20052;-76
2023/05/26 01:37:03;;;;;;;25.15;4.30;;;;;;;9.50;100.00;103069.19;4874825;29;20048;-76
2023/05/26 01:39:31;;;;;;;38.22;6.13;;;;;;;9.53;100.00;103073.69;4842104;29;20060;-76
2023/05/26 01:42:30;;;;;;;26.35;5.43;;;;;;;9.52;100.00;103074.50;4835945;29;20064;-74
2023/05/26 01:45:07;;;;;;;24.30;4.60;;;;;;;9.51;100.00;103062.22;4851961;29;20053;-75
2023/05/26 01:47:36;;;;;;;24.70;5.60;;;;;;;9.51;100.00;103056.94;4854812;29;20053;-76
2023/05/26 01:50:07;;;;;;;24.88;5.32;;;;;;;9.52;100.00;103066.63;4842103;29;20069;-75
2023/05/26 01:52:37;;;;;;;;;;;;;;;9.49;100.00;103067.41;4858844;29;20431;-75
2023/05/26 01:55:13;;;;;;;25.02;5.15;;;;;;;9.49;100.00;103074.38;4860108;29;20301;-75
2023/05/26 01:57:43;;;;;;;21.85;5.70;;;;;;;9.51;100.00;103070.09;4869745;29;20057;-75
2023/05/26 02:00:12;;;;;;;22.67;4.85;;;;;;;9.52;100.00;103079.78;4858913;29;20069;-75
2023/05/26 02:02:42;;;;;;;26.60;4.97;;;;;;;9.53;100.00;103081.59;4855826;29;20499;-75
2023/05/26 02:05:09;;;;;;;20.92;4.57;;;;;;;9.53;100.00;103074.59;4828517;29;20066;-75
2023/05/26 02:07:40;;;;;;;31.75;5.32;;;;;;;9.54;100.00;103075.47;4860943;29;20050;-75
2023/05/26 02:10:08;;;;;;;26.08;4.90;;;;;;;9.55;100.00;103082.56;4842955;29;20057;-74
2023/05/26 02:12:36;;;;;;;20.38;5.13;;;;;;;9.53;100.00;103079.84;4889236;29;20056;-75
2023/05/26 02:15:03;;;;;;;22.90;5.50;;;;;;;9.52;100.00;103082.41;4856247;29;20500;-75
2023/05/26 02:17:32;;;;;;;21.45;4.75;;;;;;;9.52;100.00;103082.41;4839386;29;20547;-75
2023/05/26 02:20:00;;;;;;;28.45;5.30;;;;;;;9.51;100.00;103092.06;4841582;29;20064;-75
2023/05/26 02:22:28;;;;;;;24.35;5.32;;;;;;;9.51;100.00;103088.53;4847000;29;20055;-75
2023/05/26 02:24:57;;;;;;;22.98;4.30;;;;;;;9.50;100.00;103087.59;4866584;29;20057;-75
2023/05/26 02:27:25;;;;;;;22.35;5.40;;;;;;;9.49;100.00;103092.78;4858115;29;20057;-75
2023/05/26 02:29:52;;;;;;;25.38;5.53;;;;;;;9.48;100.00;103085.75;4855045;29;20045;-75
2023/05/26 02:32:19;;;;;;;25.08;4.90;;;;;;;9.48;100.00;103093.66;4873410;29;20339;-75
2023/05/26 02:34:47;;;;;;;27.05;5.45;;;;;;;9.46;100.00;103095.31;4868645;29;20049;-75
2023/05/26 02:37:17;;;;;;;27.30;5.38;;;;;;;9.45;100.00;103091.78;4826245;29;20056;-75
2023/05/26 02:39:44;;;;;;;21.40;4.93;;;;;;;9.45;100.00;103089.16;4862512;29;20507;-75
2023/05/26 02:42:11;;;;;;;19.52;5.07;;;;;;;9.44;100.00;103102.25;4838685;29;20060;-75
2023/05/26 02:44:39;;;;;;;20.60;4.85;;;;;;;9.44;100.00;103091.72;4886355;29;20043;-75
2023/05/26 02:47:06;;;;;;;21.92;4.70;;;;;;;9.44;100.00;103097.88;4870622;29;20053;-75
2023/05/26 02:49:34;;;;;;;24.83;6.10;;;;;;;9.45;100.00;103081.25;4873127;29;20056;-75
2023/05/26 02:52:01;;;;;;;20.95;4.95;;;;;;;9.44;100.00;103097.88;4825071;29;20061;-75
2023/05/26 02:54:29;;;;;;;26.23;5.43;;;;;;;9.45;100.00;103102.31;4882013;29;20044;-75
2023/05/26 02:56:56;;;;;;;26.60;5.47;;;;;;;9.44;100.00;103104.88;4854094;29;20060;-75
2023/05/26 02:59:23;;;;;;;20.58;4.78;;;;;;;9.43;100.00;103093.44;4828074;29;20056;-74
2023/05/26 03:01:51;;;;;;;19.42;3.90;;;;;;;9.43;100.00;103098.69;4866980;29;20538;-74
2023/05/26 03:04:18;;;;;;;25.42;5.22;;;;;;;9.43;100.00;103095.16;4853523;29;20180;-75
2023/05/26 03:06:45;;;;;;;26.50;5.40;;;;;;;9.43;100.00;103092.53;4867836;29;20057;-75
2023/05/26 03:09:16;;;;;;;19.98;6.05;;;;;;;9.42;100.00;103102.16;4814262;29;20052;-76
2023/05/26 03:11:43;;;;;;;23.35;5.70;;;;;;;9.41;100.00;103089.81;4848227;29;20049;-74
2023/05/26 03:14:12;;;;;;;19.85;4.38;;;;;;;9.42;100.00;103101.28;4860807;29;20041;-76
2023/05/26 03:16:40;;;;;;;21.30;5.60;;;;;;;9.44;100.00;103103.13;4857566;29;20046;-75
2023/05/26 03:19:07;;;;;;;31.58;5.80;;;;;;;9.45;100.00;103107.59;4858991;29;20053;-75
2023/05/26 03:21:35;;;;;;;23.55;4.60;;;;;;;9.43;100.00;103103.94;4860147;29;20530;-75
2023/05/26 03:24:16;;;;;;;25.80;4.68;;;;;;;9.43;100.00;103100.44;4818411;29;21580;-75
2023/05/26 03:26:44;;;;;;;20.90;4.18;;;;;;;9.43;100.00;103100.44;4865086;29;20387;-75
2023/05/26 03:29:13;;;;;;;26.63;5.38;;;;;;;9.41;100.00;103100.34;4861077;29;20061;-75
2023/05/26 03:31:40;;;;;;;26.60;5.45;;;;;;;9.42;100.00;103096.00;4856730;29;20061;-75
2023/05/26 03:34:08;;;;;;;17.30;4.60;;;;;;;9.43;100.00;103096.06;4850326;29;20052;-75
2023/05/26 03:36:36;;;;;;;25.17;5.70;;;;;;;9.44;100.00;103100.50;4868768;29;20534;-75
2023/05/26 03:39:15;;;;;;;21.35;3.95;;;;;;;9.44;100.00;103100.50;4792000;29;20056;-75
2023/05/26 03:41:43;;;;;;;28.83;5.40;;;;;;;9.46;100.00;103103.22;4869866;29;20053;-75
2023/05/26 03:44:10;;;;;;;21.73;5.03;;;;;;;9.48;100.00;103104.16;4863718;29;20061;-75
2023/05/26 03:46:39;;;;;;;22.13;4.85;;;;;;;9.51;100.00;103104.31;4883071;29;20059;-75
2023/05/26 03:49:07;;;;;;;22.83;4.63;;;;;;;9.53;100.00;103097.38;4857127;29;20076;-75
2023/05/26 03:51:35;;;;;;;34.25;5.22;;;;;;;9.56;100.00;103106.31;4838444;29;20049;-75
2023/05/26 03:54:03;;;;;;;26.38;4.93;;;;;;;9.59;100.00;103099.38;4835984;29;20060;-75
2023/05/26 03:56:31;;;;;;;24.67;5.68;;;;;;;9.59;100.00;103105.53;4847854;29;20045;-75
2023/05/26 03:58:59;;;;;;;28.13;5.32;;;;;;;9.61;100.00;103109.13;4859383;29;20065;-75
2023/05/26 04:01:27;;;;;;;22.38;5.13;;;;;;;9.63;100.00;103120.63;4826356;29;20060;-75
2023/05/26 04:03:54;;;;;;;22.77;6.20;;;;;;;9.66;100.00;103115.50;4859893;29;20063;-75
2023/05/26 04:06:23;;;;;;;19.65;5.63;;;;;;;9.69;100.00;103113.00;4868520;29;20040;-75
2023/05/26 04:08:50;;;;;;;30.45;5.63;;;;;;;9.73;100.00;103116.66;4864287;29;20617;-75
2023/05/26 04:11:18;;;;;;;18.15;4.32;;;;;;;9.78;100.00;103122.13;4807134;29;20049;-75
2023/05/26 04:13:45;;;;;;;20.00;4.25;;;;;;;9.98;100.00;103115.06;4869390;29;20514;-75
2023/05/26 04:16:12;;;;;;;22.25;5.22;;;;;;;10.33;100.00;103116.56;4839655;29;20057;-75
2023/05/26 04:18:40;;;;;;;26.15;5.05;;;;;;;10.66;100.00;103110.81;4846074;29;20414;-75
2023/05/26 04:21:08;;;;;;;20.63;5.15;;;;;;;10.96;100.00;103116.38;4856576;29;20064;-75
2023/05/26 04:23:36;;;;;;;23.25;4.32;;;;;;;11.23;100.00;103128.81;4866693;29;20049;-75
2023/05/26 04:26:05;;;;;;;29.02;4.78;;;;;;;11.43;100.00;103125.13;4804046;29;20037;-75
2023/05/26 04:28:49;;;;;;;23.27;4.38;;;;;;;11.43;100.00;103132.16;4869205;29;20415;-75
2023/05/26 04:31:40;;;;;;;19.50;4.97;;;;;;;11.50;100.00;103129.81;4873364;29;20853;-75
2023/05/26 04:34:28;;;;;;;20.85;5.20;;;;;;;11.61;100.00;103137.22;4875187;29;20056;-75
2023/05/26 04:37:03;;;;;;;22.35;4.50;;;;;;;11.63;100.00;103133.78;4858332;29;20053;-75
2023/05/26 04:39:31;;;;;;;17.85;4.00;;;;;;;11.55;100.00;103135.25;4869567;29;20057;-75
2023/05/26 04:41:59;;;;;;;24.10;5.85;;;;;;;11.45;100.00;103133.13;4827531;29;20041;-75
2023/05/26 04:44:27;;;;;;;22.45;5.07;;;;;;;11.34;100.00;103145.03;4868253;29;20087;-75
2023/05/26 04:46:54;;;;;;;22.70;5.15;;;;;;;11.43;100.00;103145.38;4872079;29;20052;-75
2023/05/26 04:49:23;;;;;;;20.95;4.82;;;;;;;11.92;100.00;103135.69;4869269;29;20072;-75
2023/05/26 04:51:57;;;;;;;18.08;4.82;;;;;;;12.53;100.00;103132.38;4854919;29;20903;-75
2023/05/26 04:54:27;;;;;;;21.88;4.30;;;;;;;13.13;100.00;103133.31;4847825;29;20057;-75
2023/05/26 04:56:55;;;;;;;24.65;5.50;;;;;;;13.68;100.00;103134.88;4823883;29;20057;-75
2023/05/26 04:59:30;;;;;;;25.52;4.88;;;;;;;14.11;100.00;103136.00;4841329;29;20415;-76
2023/05/26 05:01:57;;;;;;;23.05;4.45;;;;;;;14.39;100.00;103136.69;4870449;29;20057;-76
2023/05/26 05:04:32;;;;;;;21.02;5.05;;;;;;;14.79;100.00;103135.88;4850871;29;20052;-76
2023/05/26 05:07:00;;;;;;;19.88;4.53;;;;;;;15.07;100.00;103140.91;4857140;29;20526;-76
2023/05/26 05:09:27;;;;;;;13.73;4.65;;;;;;;15.28;100.00;103132.47;4854045;29;20531;-76
2023/05/26 05:11:54;;;;;;;21.42;4.47;;;;;;;15.45;100.00;103146.09;4850877;29;20052;-76
2023/05/26 05:14:22;;;;;;;21.50;4.10;;;;;;;15.39;100.00;103141.56;4829336;29;20073;-76
2023/05/26 05:16:50;;;;;;;14.68;3.70;;;;;;;15.60;100.00;103154.34;4862145;29;20059;-76
2023/05/26 05:19:18;;;;;;;19.13;4.13;;;;;;;15.92;100.00;103149.66;4848437;29;20060;-76
2023/05/26 05:21:50;;;;;;;15.95;4.30;;;;;;;16.32;100.00;103147.66;4857438;29;20514;-76
2023/05/26 05:24:18;;;;;;;15.50;4.13;;;;;;;16.38;100.00;103155.72;4831728;29;20052;-77
2023/05/26 05:26:45;;;;;;;14.35;4.32;;;;;;;16.40;98.50;103157.53;4866815;29;20968;-77
2023/05/26 05:29:15;;;;;;;25.63;4.10;;;;;;;16.40;96.94;103157.53;4838253;29;20067;-77
2023/05/26 05:31:46;;;;;;;18.67;4.38;;;;;;;16.33;95.63;103159.19;4834073;29;20056;-76
2023/05/26 05:34:13;;;;;;;15.10;4.28;;;;;;;16.41;95.79;103151.31;4841431;29;20057;-76
2023/05/26 05:36:43;;;;;;;15.02;4.00;;;;;;;16.51;96.21;103163.91;4854905;29;20052;-77
2023/05/26 05:39:11;;;;;;;18.17;3.88;;;;;;;16.58;93.56;103155.16;4852957;29;20075;-76
2023/05/26 05:41:39;;;;;;;18.15;4.40;;;;;;;16.50;91.01;103171.03;4838778;29;20064;-76
2023/05/26 05:44:07;;;;;;;17.48;4.00;;;;;;;16.45;90.40;103161.16;4815115;29;20053;-76
2023/05/26 05:46:34;;;;;;;14.85;5.25;;;;;;;16.50;90.79;103176.34;4853812;29;20071;-76
2023/05/26 05:49:15;;;;;;;18.10;4.05;;;;;;;16.60;90.14;103172.06;4860169;29;20072;-77
2023/05/26 05:51:45;;;;;;;14.30;4.10;;;;;;;16.79;89.05;103172.31;4863323;29;20060;-76
2023/05/26 05:54:13;;;;;;;16.48;3.85;;;;;;;16.97;88.71;103185.03;4851710;29;20079;-76
2023/05/26 05:56:40;;;;;;;20.08;3.85;;;;;;;16.84;85.91;103183.94;4883075;29;20060;-76
2023/05/26 05:59:13;;;;;;;23.45;4.20;;;;;;;17.08;85.99;103183.41;4809631;29;20048;-75
2023/05/26 06:01:40;;;;;;;;;;;;;;;17.19;72.84;103181.78;4884008;29;20049;-76
2023/05/26 06:04:08;;;;;;;16.75;4.22;;;;;;;17.25;82.18;103188.94;4857933;29;19933;-76
2023/05/26 06:06:36;;;;;;;16.10;3.95;;;;;;;17.22;79.73;103191.56;4854020;29;20053;-76
2023/05/26 06:09:04;;;;;;;17.67;4.38;;;;;;;16.93;79.44;103190.28;4847959;29;20447;-76
2023/05/26 06:11:33;;;;;;;13.02;3.58;;;;;;;16.84;80.46;103194.59;4823921;29;20057;-76
2023/05/26 06:14:01;;;;;;;15.73;3.30;;;;;;;17.00;80.77;103195.72;4852045;29;20053;-76
2023/05/26 06:16:28;;;;;;;15.75;4.18;;;;;;;17.14;78.33;103197.72;4812721;29;20407;-75
2023/05/26 06:18:56;;;;;;;14.32;3.58;;;;;;;17.04;76.34;103190.44;4835746;29;20057;-75
2023/05/26 06:21:23;;;;;;;18.05;3.72;;;;;;;16.72;74.33;103198.84;4853138;29;20045;-75
2023/05/26 06:23:54;;;;;;;13.73;2.92;;;;;;;16.46;74.52;103200.19;4837414;29;20430;-76
2023/05/26 06:26:22;;;;;;;16.55;3.53;;;;;;;16.25;74.67;103206.94;4864745;29;20048;-76
2023/05/26 06:28:49;;;;;;;11.45;3.53;;;;;;;16.09;76.26;103216.44;4865642;29;20060;-76
2023/05/26 06:31:17;;;;;;;13.07;3.60;;;;;;;15.93;76.36;103204.59;4813350;29;20061;-76
2023/05/26 06:34:00;;;;;;;14.60;3.17;;;;;;;15.75;76.15;103206.94;4859608;29;20068;-76
2023/05/26 06:36:28;;;;;;;12.70;3.25;;;;;;;15.61;75.49;103227.88;4843992;29;20051;-76
2023/05/26 06:38:56;;;;;;;15.85;3.78;;;;;;;15.46;76.02;103217.84;4864569;29;20053;-76
2023/05/26 06:41:23;;;;;;;20.98;3.78;;;;;;;15.32;75.31;103219.31;4825837;29;20060;-75
2023/05/26 06:43:54;;;;;;;13.98;3.53;;;;;;;15.22;75.55;103210.28;4858125;29;20054;-75
2023/05/26 06:46:23;;;;;;;14.35;3.55;;;;;;;15.10;75.40;103224.16;4824869;29;21271;-75
2023/05/26 06:48:51;;;;;;;10.73;3.25;;;;;;;14.98;75.74;103215.94;4865349;29;20060;-75
2023/05/26 06:51:24;;;;;;;10.68;3.05;;;;;;;14.88;75.76;103224.56;4851557;29;20060;-75
2023/05/26 06:53:52;;;;;;;12.77;3.75;;;;;;;14.64;77.16;103220.44;4858727;29;20056;-76
2023/05/26 06:56:20;;;;;;;13.85;3.67;;;;;;;14.58;76.67;103218.53;4838236;29;20049;-75
2023/05/26 06:58:49;;;;;;;16.98;3.67;;;;;;;14.57;77.33;103222.06;4854796;29;20044;-75
2023/05/26 07:01:17;;;;;;;16.33;3.08;;;;;;;14.52;76.53;103221.00;4839935;29;20061;-75
2023/05/26 07:03:44;;;;;;;25.35;4.32;;;;;;;14.40;76.54;103218.97;4819124;29;20064;-75
2023/05/26 07:06:12;;;;;;;14.10;3.80;;;;;;;14.43;79.01;103216.38;4850105;29;20045;-74
2023/05/26 07:08:39;;;;;;;15.15;3.50;;;;;;;14.47;78.92;103216.44;4842147;29;20067;-75
2023/05/26 07:11:19;;;;;;;11.63;3.63;;;;;;;14.38;77.94;103220.66;4865858;29;20060;-75
2023/05/26 07:13:52;;;;;;;17.42;3.38;;;;;;;14.39;79.88;103217.16;4849242;29;20049;-75
2023/05/26 07:16:21;;;;;;;15.70;3.53;;;;;;;14.24;78.09;103222.97;4846911;29;20955;-75
2023/05/26 07:18:48;;;;;;;13.80;3.25;;;;;;;14.21;79.57;103221.97;4834936;29;20053;-75
2023/05/26 07:21:18;;;;;;;12.60;3.22;;;;;;;14.23;80.09;103215.88;4875769;29;20045;-75
2023/05/26 07:23:48;;;;;;;17.25;3.60;;;;;;;14.33;80.50;103224.97;4845464;29;20080;-75
2023/05/26 07:26:16;;;;;;;10.32;2.90;;;;;;;14.32;78.32;103217.84;4863340;29;20040;-75
2023/05/26 07:28:44;;;;;;;11.98;3.35;;;;;;;14.31;79.75;103224.03;4853912;29;20060;-75
2023/05/26 07:31:11;;;;;;;13.10;3.97;;;;;;;14.37;79.83;103223.28;4869984;29;20049;-75
2023/05/26 07:33:40;;;;;;;13.13;3.25;;;;;;;14.42;79.03;103227.84;4817622;29;20049;-75
2023/05/26 07:36:08;;;;;;;16.02;3.50;;;;;;;14.52;79.61;103222.78;4853185;29;20052;-75
2023/05/26 07:38:35;;;;;;;17.23;4.13;;;;;;;14.57;80.08;103224.72;4840296;29;20055;-75
2023/05/26 07:41:03;;;;;;;10.80;3.30;;;;;;;14.51;78.05;103220.97;4865078;29;20045;-76
2023/05/26 07:43:31;;;;;;;10.65;3.33;;;;;;;14.56;78.95;103224.63;4857338;29;20052;-77
2023/05/26 07:45:59;;;;;;;11.70;3.40;;;;;;;14.58;78.17;103223.84;4844587;29;20056;-77
2023/05/26 07:48:26;;;;;;;15.48;3.53;;;;;;;14.61;78.10;103223.00;4814799;29;20064;-76
2023/05/26 07:50:53;;;;;;;13.18;3.17;;;;;;;14.59;78.75;103228.31;4861031;29;20056;-77
2023/05/26 07:53:21;;;;;;;11.65;3.75;;;;;;;14.65;78.96;103224.91;4874102;29;20068;-75
2023/05/26 07:55:48;;;;;;;10.20;3.05;;;;;;;14.77;80.37;103240.22;4866728;29;20052;-75
2023/05/26 07:58:16;;;;;;;16.25;3.55;;;;;;;14.78;78.35;103237.59;4869380;29;20068;-74
2023/05/26 08:00:44;;;;;;;11.13;3.03;;;;;;;14.71;77.40;103240.97;4857708;29;20059;-77
2023/05/26 08:03:11;;;;;;;12.18;3.30;;;;;;;14.63;77.90;103247.84;4844384;29;20057;-76
2023/05/26 08:05:38;;;;;;;11.07;2.97;;;;;;;14.52;79.18;103238.69;4829129;29;20414;-76
2023/05/26 08:08:06;;;;;;;13.35;3.22;;;;;;;14.49;79.72;103235.97;4865432;29;20048;-76
2023/05/26 08:10:33;;;;;;;16.70;3.35;;;;;;;14.51;79.98;103237.78;4866170;29;20052;-76
2023/05/26 08:13:00;;;;;;;16.38;3.13;;;;;;;14.46;79.65;103238.50;4845603;29;20068;-76
2023/05/26 08:15:28;;;;;;;14.07;3.25;;;;;;;14.45;79.79;103231.44;4871503;29;20052;-76
2023/05/26 08:17:55;;;;;;;16.92;3.67;;;;;;;14.48;81.61;103236.81;4868921;29;20059;-76
2023/05/26 08:20:22;;;;;;;10.27;3.15;;;;;;;14.50;79.84;103237.72;4819451;29;20045;-76
2023/05/26 08:22:50;;;;;;;9.15;3.00;;;;;;;14.48;80.19;103236.81;4867628;29;20446;-76
2023/05/26 08:25:17;;;;;;;9.07;3.00;;;;;;;14.50;80.02;103232.44;4885311;29;20491;-76
2023/05/26 08:27:45;;;;;;;21.15;3.50;;;;;;;14.50;79.05;103235.06;4870297;29;20053;-75
2023/05/26 08:30:12;;;;;;;19.15;3.88;;;;;;;14.50;80.44;103241.31;4827641;29;20061;-76
2023/05/26 08:32:40;;;;;;;13.52;3.45;;;;;;;14.52;80.01;103241.34;4866327;29;20127;-75
2023/05/26 08:35:08;;;;;;;18.90;3.88;;;;;;;14.52;81.19;103246.66;4866720;29;20418;-75
2023/05/26 08:37:35;;;;;;;11.70;2.60;;;;;;;14.63;81.83;103242.53;4806156;29;20045;-75
2023/05/26 08:40:04;;;;;;;9.60;3.72;;;;;;;14.65;79.61;103251.44;4857859;29;20044;-75
2023/05/26 08:42:41;;;;;;;16.40;2.97;;;;;;;14.59;78.70;103240.66;4847126;29;20045;-75
2023/05/26 08:45:09;;;;;;;9.60;2.45;;;;;;;14.58;78.86;103254.78;4867062;29;20049;-75
2023/05/26 08:47:39;;;;;;;13.68;2.95;;;;;;;14.49;78.85;103257.19;4863149;29;20052;-75
2023/05/26 08:50:08;;;;;;;13.82;3.13;;;;;;;14.38;78.68;103255.13;4872316;29;20056;-75
2023/05/26 08:52:37;;;;;;;14.38;3.20;;;;;;;14.37;80.28;103252.47;4820162;29;20065;-74
2023/05/26 08:55:08;;;;;;;14.00;2.67;;;;;;;14.45;80.87;103248.25;4867367;29;20499;-75
2023/05/26 08:57:37;;;;;;;10.25;3.15;;;;;;;14.43;81.57;103249.97;4858513;29;20056;-75
2023/05/26 09:00:07;;;;;;;10.43;3.30;;;;;;;14.54;80.96;103251.13;4849256;29;20052;-75
2023/05/26 09:02:34;;;;;;;9.85;2.83;;;;;;;14.58;79.37;103250.38;4844492;29;20061;-75
2023/05/26 09:05:02;;;;;;;16.70;3.67;;;;;;;14.65;79.58;103262.06;4875176;29;20060;-74
2023/05/26 09:07:29;;;;;;;15.60;2.88;;;;;;;14.74;79.42;103256.94;4829264;29;20144;-75
2023/05/26 09:10:22;;;;;;;12.23;2.63;;;;;;;14.67;76.27;103251.44;4844441;29;20067;-75
2023/05/26 09:13:01;;;;;;;14.40;3.22;;;;;;;14.73;80.29;103255.16;4856825;29;21662;-75
2023/05/26 09:15:29;;;;;;;13.13;2.80;;;;;;;14.80;79.33;103262.44;4842702;29;23813;-76
2023/05/26 09:18:11;;;;;;;13.95;3.17;;;;;;;14.81;75.90;103271.28;4876087;29;20044;-76
2023/05/26 09:20:41;;;;;;;12.05;3.78;;;;;;;14.84;78.47;103270.44;4885104;29;20040;-75
2023/05/26 09:23:09;;;;;;;12.55;3.63;;;;;;;14.92;78.66;103276.84;4829460;29;20045;-75
2023/05/26 09:25:38;;;;;;;14.40;3.17;;;;;;;14.95;75.81;103276.91;4871591;29;20064;-75
2023/05/26 09:28:08;;;;;;;9.85;2.60;;;;;;;14.80;78.82;103267.72;4874650;29;20048;-75
2023/05/26 09:30:39;;;;;;;14.10;3.80;;;;;;;14.88;78.83;103265.25;4878046;29;20048;-75
2023/05/26 09:33:11;;;;;;;14.07;3.80;;;;;;;14.83;80.30;103266.91;4872674;29;20056;-75
2023/05/26 09:35:40;;;;;;;14.02;3.10;;;;;;;14.84;78.69;103268.72;4870092;29;20045;-75
2023/05/26 09:38:12;;;;;;;12.02;3.60;;;;;;;14.87;78.07;103270.53;4841291;29;20041;-75
2023/05/26 09:40:45;;;;;;;11.85;3.38;;;;;;;14.92;79.58;103279.50;4841241;29;20490;-75
2023/05/26 09:43:15;;;;;;;14.57;3.72;;;;;;;14.93;78.98;103271.59;4848283;29;20053;-75
2023/05/26 09:45:43;;;;;;;16.80;4.07;;;;;;;14.92;78.92;103283.06;4872289;29;20049;-76
2023/05/26 09:48:10;;;;;;;18.77;6.25;;;;;;;14.86;79.11;103272.28;4854240;29;20049;-75
2023/05/26 09:50:39;;;;;;;17.20;4.13;;;;;;;14.89;79.28;103267.03;4839444;29;20049;-76
2023/05/26 09:53:11;;;;;;;12.32;3.58;;;;;;;14.94;79.16;103275.13;4868839;29;20060;-76
2023/05/26 09:55:40;;;;;;;17.50;3.70;;;;;;;15.02;79.08;103269.13;4820598;29;20834;-75
2023/05/26 09:58:12;;;;;;;13.45;3.55;;;;;;;15.10;79.00;103265.75;4849346;29;20041;-76
2023/05/26 10:00:43;;;;;;;16.45;4.10;;;;;;;15.09;80.33;103280.78;4851290;29;20056;-76
2023/05/26 10:03:11;;;;;;;;;;;;;;;15.18;79.83;103281.00;4854593;29;20059;-76
2023/05/26 10:05:46;;;;;;;16.13;3.60;;;;;;;15.24;80.05;103269.63;4845434;29;19931;-76
2023/05/26 10:08:18;;;;;;;10.95;3.20;;;;;;;15.30;79.96;103276.84;4856420;29;20162;-76
2023/05/26 10:10:49;;;;;;;14.05;3.58;;;;;;;15.44;81.56;103275.34;4829770;29;20068;-76
2023/05/26 10:13:17;;;;;;;;;;;;;;;15.49;79.57;103271.06;4868391;29;20155;-76
2023/05/26 10:15:45;;;;;;;16.75;3.65;;;;;;;15.51;79.66;103285.25;4853841;29;19931;-76
2023/05/26 10:18:13;;;;;;;16.63;3.83;;;;;;;15.48;79.49;103278.97;4855103;29;21105;-76
2023/05/26 10:20:46;;;;;;;15.45;3.33;;;;;;;15.50;80.43;103278.19;4849727;29;20049;-76
2023/05/26 10:23:21;;;;;;;16.23;3.65;;;;;;;15.49;78.00;103288.75;4861025;29;20439;-76
2023/05/26 10:26:07;;;;;;;15.63;3.22;;;;;;;15.45;78.87;103273.63;4825787;29;20045;-76
2023/05/26 10:28:46;;;;;;;10.00;2.90;;;;;;;15.51;80.57;103274.63;4849289;29;20499;-76
2023/05/26 10:31:28;;;;;;;13.00;3.53;;;;;;;15.59;79.96;103266.81;4873083;29;20060;-76
2023/05/26 10:33:56;;;;;;;15.70;3.58;;;;;;;15.62;79.88;103272.22;4846365;29;20061;-76
2023/05/26 10:36:24;;;;;;;12.77;3.53;;;;;;;15.56;81.24;103270.31;4853563;29;20745;-76
2023/05/26 10:38:53;;;;;;;15.10;3.70;;;;;;;15.59;80.34;103269.47;4885321;29;20494;-76
2023/05/26 10:41:31;;;;;;;12.35;3.15;;;;;;;15.63;79.79;103273.09;4813946;29;20045;-76
2023/05/26 10:44:00;;;;;;;13.65;3.70;;;;;;;15.57;82.07;103272.09;4866085;29;20055;-76
2023/05/26 10:46:38;;;;;;;15.13;4.43;;;;;;;15.64;81.91;103259.84;4873848;29;20494;-76
2023/05/26 10:49:20;;;;;;;16.35;4.00;;;;;;;15.75;82.59;103266.31;4878840;29;20039;-76
2023/05/26 10:51:55;;;;;;;16.27;4.35;;;;;;;15.85;82.79;103264.72;4833853;29;20060;-77
2023/05/26 10:54:24;;;;;;;11.57;3.75;;;;;;;15.95;82.88;103256.09;4877744;29;20061;-76
2023/05/26 10:56:54;;;;;;;18.17;4.45;;;;;;;16.07;83.50;103259.84;4815985;29;27968;-76
2023/05/26 10:59:30;;;;;;;20.92;4.60;;;;;;;16.11;82.88;103259.03;4869254;29;20036;-76
2023/05/26 11:02:06;;;;;;;16.95;4.32;;;;;;;16.08;81.94;103256.31;4864855;29;20053;-76
2023/05/26 11:04:45;;;;;;;15.85;3.83;;;;;;;16.00;81.92;103271.22;4852921;29;20056;-76
2023/05/26 11:07:20;;;;;;;15.68;3.92;;;;;;;15.94;81.01;103246.31;4829535;29;20533;-76
2023/05/26 11:10:17;;;;;;;16.33;3.75;;;;;;;15.95;82.30;103249.84;4867372;29;20049;-76
2023/05/26 11:12:54;;;;;;;16.10;4.13;;;;;;;16.00;83.23;103255.28;4803057;29;20475;-75
2023/05/26 11:15:26;;;;;;;18.30;4.85;;;;;;;16.15;83.32;103250.22;4861833;29;20064;-75
2023/05/26 11:18:00;;;;;;;18.35;4.70;;;;;;;16.24;83.74;103258.38;4877193;29;20415;-75
2023/05/26 11:20:28;;;;;;;17.75;4.07;;;;;;;16.25;82.89;103252.19;4852032;29;20059;-75
2023/05/26 11:22:56;;;;;;;15.23;4.10;;;;;;;16.27;83.40;103247.78;4855530;29;20060;-75
2023/05/26 11:25:25;;;;;;;18.35;4.20;;;;;;;16.14;82.14;103246.69;4870396;29;20061;-77
2023/05/26 11:27:53;;;;;;;17.27;4.32;;;;;;;16.15;83.65;103252.91;4836028;29;20044;-75
2023/05/26 11:30:21;;;;;;;17.38;4.32;;;;;;;16.16;84.66;103252.00;4873785;29;20462;-76